createdAt,value
2018-03-14T00:00:40.076Z,1008.04
2018-03-14T00:01:39.888Z,1007.99
2018-03-14T00:02:39.876Z,1008.05
2018-03-14T00:03:39.704Z,1008.01
2018-03-14T00:04:39.711Z,1008.04
2018-03-14T00:05:39.540Z,1008.03
2018-03-14T00:06:39.525Z,1008.03
2018-03-14T00:07:39.381Z,1008.07
2018-03-14T00:08:39.410Z,1008.09
2018-03-14T00:09:39.211Z,1008.07
2018-03-14T00:10:39.218Z,1008.12
2018-03-14T00:11:39.068Z,1008.13
2018-03-14T00:12:39.057Z,1008.15
2018-03-14T00:13:38.894Z,1008.09
2018-03-14T00:14:38.938Z,1008.09
2018-03-14T00:15:38.736Z,1008.05
2018-03-14T00:16:38.749Z,1008.01
2018-03-14T00:17:38.600Z,1007.99
2018-03-14T00:18:38.551Z,1008.08
2018-03-14T00:19:38.408Z,1008.10
2018-03-14T00:20:38.499Z,1008.08
2018-03-14T00:21:38.248Z,1008.13
2018-03-14T00:22:39.234Z,1008.16
2018-03-14T00:23:38.226Z,1008.13
2018-03-14T00:24:37.997Z,1008.15
2018-03-14T00:25:37.914Z,1008.15
2018-03-14T00:26:37.886Z,1008.14
2018-03-14T00:27:37.771Z,1008.14
2018-03-14T00:28:37.822Z,1008.11
2018-03-14T00:29:37.589Z,1008.12
2018-03-14T00:30:37.609Z,1008.09
2018-03-14T00:31:37.425Z,1008.10
2018-03-14T00:32:37.411Z,1008.13
2018-03-14T00:33:37.287Z,1008.10
2018-03-14T00:34:37.228Z,1008.10
2018-03-14T00:35:37.097Z,1008.16
2018-03-14T00:36:37.783Z,1008.16
2018-03-14T00:37:36.953Z,1008.13
2018-03-14T00:38:36.987Z,1008.11
2018-03-14T00:39:36.777Z,1008.14
2018-03-14T00:40:36.755Z,1008.16
2018-03-14T00:41:36.617Z,1008.17
2018-03-14T00:42:36.659Z,1008.20
2018-03-14T00:43:36.469Z,1008.21
2018-03-14T00:44:36.468Z,1008.16
2018-03-14T00:45:36.294Z,1008.17
2018-03-14T00:46:36.279Z,1008.22
2018-03-14T00:47:36.132Z,1008.20
2018-03-14T00:48:36.127Z,1008.19
2018-03-14T00:49:35.976Z,1008.24
2018-03-14T00:50:35.903Z,1008.21
2018-03-14T00:51:35.794Z,1008.19
2018-03-14T00:52:35.807Z,1008.14
2018-03-14T00:53:35.677Z,1008.17
2018-03-14T00:54:35.610Z,1008.22
2018-03-14T00:55:35.481Z,1008.20
2018-03-14T00:56:35.523Z,1008.26
2018-03-14T00:57:35.313Z,1008.21
2018-03-14T00:58:35.368Z,1008.23
2018-03-14T00:59:35.150Z,1008.19
2018-03-14T01:00:35.142Z,1008.20
2018-03-14T01:01:34.983Z,1008.17
2018-03-14T01:02:34.951Z,1008.20
2018-03-14T01:03:34.817Z,1008.22
2018-03-14T01:04:34.781Z,1008.19
2018-03-14T01:05:34.660Z,1008.16
2018-03-14T01:06:34.679Z,1008.15
2018-03-14T01:07:34.508Z,1008.17
2018-03-14T01:08:34.481Z,1008.17
2018-03-14T01:09:34.344Z,1008.18
2018-03-14T01:10:34.286Z,1008.18
2018-03-14T01:11:34.180Z,1008.16
2018-03-14T01:12:34.237Z,1008.17
2018-03-14T01:13:34.021Z,1008.14
2018-03-14T01:14:33.952Z,1008.19
2018-03-14T01:15:33.854Z,1008.14
2018-03-14T01:16:33.851Z,1008.15
2018-03-14T01:17:33.686Z,1008.14
2018-03-14T01:18:33.733Z,1008.14
2018-03-14T01:19:33.546Z,1008.14
2018-03-14T01:20:33.595Z,1008.12
2018-03-14T01:21:33.358Z,1008.14
2018-03-14T01:22:33.337Z,1008.12
2018-03-14T01:23:33.198Z,1008.16
2018-03-14T01:24:33.146Z,1008.11
2018-03-14T01:25:33.046Z,1008.09
2018-03-14T01:26:33.059Z,1008.13
2018-03-14T01:27:32.878Z,1008.09
2018-03-14T01:28:32.872Z,1008.04
2018-03-14T01:29:32.712Z,1008.05
2018-03-14T01:30:32.707Z,1008.02
2018-03-14T01:31:32.540Z,1008.06
2018-03-14T01:32:32.589Z,1008.06
2018-03-14T01:33:32.390Z,1008.05
2018-03-14T01:34:32.399Z,1008.07
2018-03-14T01:35:32.281Z,1008.08
2018-03-14T01:36:32.615Z,1008.03
2018-03-14T01:37:32.063Z,1008.06
2018-03-14T01:40:14.249Z,1008.06
2018-03-14T01:41:14.256Z,1008.06
2018-03-14T01:42:14.123Z,1008.03
2018-03-14T01:43:14.029Z,1008.05
2018-03-14T01:44:13.898Z,1008.02
2018-03-14T01:45:13.941Z,1008.00
2018-03-14T01:46:13.763Z,1007.97
2018-03-14T01:47:13.749Z,1008.01
2018-03-14T01:48:13.567Z,1008.01
2018-03-14T01:49:13.555Z,1008.01
2018-03-14T01:50:13.400Z,1008.01
2018-03-14T01:51:13.393Z,1008.02
2018-03-14T01:52:13.246Z,1008.00
2018-03-14T01:53:13.282Z,1008.04
2018-03-14T01:54:13.076Z,1008.01
2018-03-14T01:55:13.088Z,1008.02
2018-03-14T01:56:12.945Z,1007.97
2018-03-14T01:57:12.890Z,1007.98
2018-03-14T01:58:12.757Z,1008.02
2018-03-14T01:59:12.693Z,1007.99
2018-03-14T02:00:12.594Z,1008.05
2018-03-14T02:01:12.614Z,1007.97
2018-03-14T02:02:12.513Z,1007.99
2018-03-14T02:03:12.418Z,1007.95
2018-03-14T02:04:12.264Z,1007.89
2018-03-14T02:05:12.242Z,1007.92
2018-03-14T02:06:12.113Z,1007.90
2018-03-14T02:07:12.163Z,1007.89
2018-03-14T02:08:11.945Z,1007.91
2018-03-14T02:09:11.944Z,1007.88
2018-03-14T02:10:11.784Z,1007.90
2018-03-14T02:11:11.756Z,1007.94
2018-03-14T02:12:11.635Z,1007.89
2018-03-14T02:13:11.667Z,1007.91
2018-03-14T02:14:11.494Z,1007.97
2018-03-14T02:15:11.469Z,1007.91
2018-03-14T02:16:11.293Z,1007.98
2018-03-14T02:17:11.766Z,1007.91
2018-03-14T02:18:11.128Z,1007.99
2018-03-14T02:19:11.086Z,1007.99
2018-03-14T02:20:10.964Z,1007.94
2018-03-14T02:21:10.995Z,1007.95
2018-03-14T02:22:10.825Z,1007.99
2018-03-14T02:23:10.844Z,1007.98
2018-03-14T02:24:10.647Z,1007.99
2018-03-14T02:25:10.621Z,1007.94
2018-03-14T02:26:10.481Z,1007.97
2018-03-14T02:27:10.591Z,1007.99
2018-03-14T02:28:10.323Z,1008.02
2018-03-14T02:29:10.338Z,1008.00
2018-03-14T02:30:10.169Z,1007.98
2018-03-14T02:31:10.142Z,1007.98
2018-03-14T02:32:09.997Z,1007.98
2018-03-14T02:33:09.995Z,1007.97
2018-03-14T02:34:09.832Z,1007.95
2018-03-14T02:35:09.859Z,1007.97
2018-03-14T02:36:09.678Z,1007.95
2018-03-14T02:37:09.664Z,1007.96
2018-03-14T02:38:09.539Z,1007.91
2018-03-14T02:39:09.484Z,1007.89
2018-03-14T02:40:09.349Z,1007.92
2018-03-14T02:41:09.395Z,1007.94
2018-03-14T02:42:09.184Z,1007.92
2018-03-14T02:43:09.223Z,1007.89
2018-03-14T02:44:09.029Z,1007.91
2018-03-14T02:45:09.000Z,1007.94
2018-03-14T02:46:08.858Z,1007.94
2018-03-14T02:47:08.812Z,1008.00
2018-03-14T02:48:08.727Z,1007.98
2018-03-14T02:49:08.760Z,1007.95
2018-03-14T02:50:08.538Z,1007.92
2018-03-14T02:51:08.529Z,1007.93
2018-03-14T02:52:08.384Z,1007.94
2018-03-14T02:53:08.341Z,1007.97
2018-03-14T02:54:08.227Z,1007.91
2018-03-14T02:55:08.255Z,1007.92
2018-03-14T02:56:08.050Z,1007.90
2018-03-14T02:57:08.066Z,1007.89
2018-03-14T02:58:07.906Z,1007.92
2018-03-14T02:59:07.905Z,1007.91
2018-03-14T03:00:07.723Z,1007.90
2018-03-14T03:01:07.904Z,1007.91
2018-03-14T03:02:07.573Z,1007.88
2018-03-14T03:03:07.583Z,1007.91
2018-03-14T03:04:07.427Z,1007.92
2018-03-14T03:05:07.445Z,1007.91
2018-03-14T03:06:07.240Z,1007.90
2018-03-14T03:07:07.207Z,1007.91
2018-03-14T03:08:07.123Z,1007.86
2018-03-14T03:09:07.126Z,1007.89
2018-03-14T03:10:06.931Z,1007.89
2018-03-14T03:11:06.848Z,1007.92
2018-03-14T03:12:06.758Z,1007.89
2018-03-14T03:13:06.739Z,1007.89
2018-03-14T03:14:06.628Z,1007.87
2018-03-14T03:15:06.646Z,1007.91
2018-03-14T03:16:06.431Z,1007.93
2018-03-14T03:17:06.453Z,1007.92
2018-03-14T03:18:06.269Z,1007.91
2018-03-14T03:19:06.262Z,1007.91
2018-03-14T03:20:06.130Z,1007.93
2018-03-14T03:21:06.080Z,1007.95
2018-03-14T03:22:05.944Z,1007.94
2018-03-14T03:23:05.988Z,1007.93
2018-03-14T03:24:05.783Z,1007.99
2018-03-14T03:25:05.946Z,1007.95
2018-03-14T03:26:05.624Z,1007.97
2018-03-14T03:27:05.603Z,1008.00
2018-03-14T03:28:05.483Z,1007.98
2018-03-14T03:30:47.752Z,1007.96
2018-03-14T03:31:47.700Z,1007.96
2018-03-14T03:32:47.574Z,1007.97
2018-03-14T03:33:47.620Z,1008.01
2018-03-14T03:34:47.408Z,1008.01
2018-03-14T03:35:47.440Z,1008.02
2018-03-14T03:36:47.273Z,1008.05
2018-03-14T03:37:47.235Z,1008.04
2018-03-14T03:38:47.088Z,1008.00
2018-03-14T03:39:47.040Z,1008.03
2018-03-14T03:40:46.957Z,1008.05
2018-03-14T03:41:46.990Z,1008.03
2018-03-14T03:42:46.763Z,1008.03
2018-03-14T03:43:46.769Z,1008.04
2018-03-14T03:44:46.642Z,1008.05
2018-03-14T03:45:46.908Z,1008.04
2018-03-14T03:46:46.483Z,1008.05
2018-03-14T03:47:47.205Z,1008.03
2018-03-14T03:48:46.276Z,1008.03
2018-03-14T03:49:46.291Z,1008.05
2018-03-14T03:50:46.138Z,1008.05
2018-03-14T03:51:46.098Z,1008.04
2018-03-14T03:52:45.957Z,1008.05
2018-03-14T03:53:45.882Z,1008.03
2018-03-14T03:54:45.793Z,1008.05
2018-03-14T03:55:45.857Z,1008.03
2018-03-14T03:56:45.659Z,1008.06
2018-03-14T03:57:45.631Z,1008.05
2018-03-14T03:58:45.470Z,1008.04
2018-03-14T03:59:45.437Z,1008.05
2018-03-14T04:00:45.316Z,1008.03
2018-03-14T04:01:45.278Z,1007.96
2018-03-14T04:02:45.137Z,1008.02
2018-03-14T04:03:45.154Z,1008.00
2018-03-14T04:04:44.992Z,1008.02
2018-03-14T04:05:44.960Z,1008.02
2018-03-14T04:06:44.905Z,1007.96
2018-03-14T04:07:44.877Z,1007.97
2018-03-14T04:08:44.658Z,1008.00
2018-03-14T04:09:44.685Z,1008.00
2018-03-14T04:10:44.499Z,1008.00
2018-03-14T04:11:44.497Z,1007.99
2018-03-14T04:12:44.356Z,1008.01
2018-03-14T04:13:44.297Z,1008.00
2018-03-14T04:14:44.171Z,1007.99
2018-03-14T04:15:44.227Z,1008.02
2018-03-14T04:16:44.053Z,1008.02
2018-03-14T04:17:44.060Z,1008.05
2018-03-14T04:18:43.845Z,1008.01
2018-03-14T04:19:43.848Z,1008.04
2018-03-14T04:20:43.691Z,1008.03
2018-03-14T04:21:43.734Z,1008.09
2018-03-14T04:22:43.547Z,1008.07
2018-03-14T04:23:43.546Z,1008.10
2018-03-14T04:24:43.362Z,1008.12
2018-03-14T04:25:43.362Z,1008.12
2018-03-14T04:26:43.206Z,1008.12
2018-03-14T04:27:43.207Z,1008.10
2018-03-14T04:28:43.063Z,1008.17
2018-03-14T04:29:43.070Z,1008.15
2018-03-14T04:30:42.875Z,1008.13
2018-03-14T04:31:42.884Z,1008.17
2018-03-14T04:32:42.710Z,1008.19
2018-03-14T04:33:42.724Z,1008.15
2018-03-14T04:34:42.564Z,1008.11
2018-03-14T04:35:42.591Z,1008.15
2018-03-14T04:36:43.317Z,1008.15
2018-03-14T04:37:42.438Z,1008.14
2018-03-14T04:38:42.223Z,1008.14
2018-03-14T04:39:42.260Z,1008.12
2018-03-14T04:40:42.063Z,1008.11
2018-03-14T04:41:42.022Z,1008.12
2018-03-14T04:42:41.898Z,1008.16
2018-03-14T04:43:41.970Z,1008.20
2018-03-14T04:44:41.735Z,1008.19
2018-03-14T04:45:41.745Z,1008.19
2018-03-14T04:46:41.573Z,1008.23
2018-03-14T04:47:41.554Z,1008.21
2018-03-14T04:48:41.427Z,1008.19
2018-03-14T04:49:41.402Z,1008.17
2018-03-14T04:50:41.252Z,1008.16
2018-03-14T04:51:41.284Z,1008.14
2018-03-14T04:52:41.094Z,1008.14
2018-03-14T04:53:41.119Z,1008.13
2018-03-14T04:54:40.957Z,1008.15
2018-03-14T04:55:40.887Z,1008.13
2018-03-14T04:56:40.761Z,1008.14
2018-03-14T04:57:40.806Z,1008.15
2018-03-14T04:58:40.604Z,1008.13
2018-03-14T04:59:40.644Z,1008.14
2018-03-14T05:00:40.435Z,1008.16
2018-03-14T05:01:40.419Z,1008.18
2018-03-14T05:02:40.283Z,1008.17
2018-03-14T05:03:40.265Z,1008.19
2018-03-14T05:04:40.133Z,1008.19
2018-03-14T05:05:40.137Z,1008.20
2018-03-14T05:06:39.962Z,1008.21
2018-03-14T05:07:39.951Z,1008.25
2018-03-14T05:08:39.788Z,1008.20
2018-03-14T05:09:39.783Z,1008.21
2018-03-14T05:10:39.617Z,1008.18
2018-03-14T05:11:39.668Z,1008.23
2018-03-14T05:12:39.475Z,1008.22
2018-03-14T05:13:39.474Z,1008.25
2018-03-14T05:14:39.316Z,1008.28
2018-03-14T05:15:39.405Z,1008.25
2018-03-14T05:16:39.126Z,1008.28
2018-03-14T05:17:39.086Z,1008.26
2018-03-14T05:18:38.972Z,1008.27
2018-03-14T05:19:38.909Z,1008.27
2018-03-14T05:20:38.825Z,1008.28
2018-03-14T05:21:38.807Z,1008.27
2018-03-14T05:22:38.648Z,1008.32
2018-03-14T05:23:38.615Z,1008.27
2018-03-14T05:24:38.486Z,1008.26
2018-03-14T05:25:38.454Z,1008.24
2018-03-14T05:26:38.327Z,1008.23
2018-03-14T05:27:38.331Z,1008.26
2018-03-14T05:28:38.155Z,1008.22
2018-03-14T05:29:38.146Z,1008.20
2018-03-14T05:30:38.020Z,1008.25
2018-03-14T05:31:37.945Z,1008.19
2018-03-14T05:32:37.866Z,1008.22
2018-03-14T05:33:37.859Z,1008.25
2018-03-14T05:34:37.719Z,1008.20
2018-03-14T05:35:37.704Z,1008.20
2018-03-14T05:36:37.506Z,1008.20
2018-03-14T05:37:37.482Z,1008.21
2018-03-14T05:38:37.353Z,1008.23
2018-03-14T05:39:37.386Z,1008.24
2018-03-14T05:40:37.206Z,1008.23
2018-03-14T05:41:37.292Z,1008.24
2018-03-14T05:42:37.020Z,1008.25
2018-03-14T05:43:37.004Z,1008.29
2018-03-14T05:44:36.850Z,1008.29
2018-03-14T05:45:36.810Z,1008.28
2018-03-14T05:46:36.706Z,1008.30
2018-03-14T05:47:36.724Z,1008.29
2018-03-14T05:48:36.544Z,1008.28
2018-03-14T05:49:36.529Z,1008.30
2018-03-14T05:50:36.368Z,1008.26
2018-03-14T05:51:36.350Z,1008.28
2018-03-14T05:52:36.205Z,1008.28
2018-03-14T05:53:36.257Z,1008.24
2018-03-14T05:54:36.039Z,1008.30
2018-03-14T05:55:36.063Z,1008.32
2018-03-14T05:56:35.897Z,1008.30
2018-03-14T05:57:35.870Z,1008.31
2018-03-14T05:58:35.717Z,1008.30
2018-03-14T05:59:35.675Z,1008.36
2018-03-14T06:00:35.552Z,1008.33
2018-03-14T06:01:35.636Z,1008.31
2018-03-14T06:02:35.389Z,1008.32
2018-03-14T06:03:35.395Z,1008.32
2018-03-14T06:04:35.227Z,1008.34
2018-03-14T06:05:35.208Z,1008.35
2018-03-14T06:06:35.081Z,1008.36
2018-03-14T06:07:35.041Z,1008.36
2018-03-14T06:08:34.921Z,1008.36
2018-03-14T06:09:34.932Z,1008.37
2018-03-14T06:10:34.746Z,1008.41
2018-03-14T06:11:34.801Z,1008.42
2018-03-14T06:12:34.579Z,1008.45
2018-03-14T06:13:34.506Z,1008.45
2018-03-14T06:14:34.418Z,1008.44
2018-03-14T06:15:34.447Z,1008.48
2018-03-14T06:16:34.283Z,1008.48
2018-03-14T06:17:34.306Z,1008.54
2018-03-14T06:18:34.084Z,1008.54
2018-03-14T06:19:34.069Z,1008.50
2018-03-14T06:20:33.924Z,1008.55
2018-03-14T06:21:33.856Z,1008.53
2018-03-14T06:22:33.789Z,1008.55
2018-03-14T06:23:33.787Z,1008.57
2018-03-14T06:24:33.606Z,1008.56
2018-03-14T06:25:33.623Z,1008.57
2018-03-14T06:26:33.438Z,1008.60
2018-03-14T06:27:45.961Z,1008.61
2018-03-14T06:28:33.278Z,1008.61
2018-03-14T06:29:33.341Z,1008.57
2018-03-14T06:30:33.114Z,1008.61
2018-03-14T06:31:33.151Z,1008.62
2018-03-14T06:32:32.961Z,1008.60
2018-03-14T06:33:35.052Z,1008.58
2018-03-14T06:34:32.788Z,1008.60
2018-03-14T06:35:32.875Z,1008.57
2018-03-14T06:36:32.641Z,1008.59
2018-03-14T06:37:32.681Z,1008.61
2018-03-14T06:38:32.486Z,1008.65
2018-03-14T06:41:26.289Z,1008.60
2018-03-14T06:42:26.264Z,1008.60
2018-03-14T06:43:26.124Z,1008.57
2018-03-14T06:44:26.184Z,1008.61
2018-03-14T06:45:25.939Z,1008.60
2018-03-14T06:48:07.801Z,1008.64
2018-03-14T06:49:07.775Z,1008.64
2018-03-14T06:50:07.604Z,1008.65
2018-03-14T06:51:07.593Z,1008.63
2018-03-14T06:52:07.454Z,1008.64
2018-03-14T06:53:07.428Z,1008.63
2018-03-14T06:54:07.284Z,1008.66
2018-03-14T06:55:07.302Z,1008.63
2018-03-14T06:56:07.117Z,1008.64
2018-03-14T06:57:07.121Z,1008.65
2018-03-14T06:58:06.985Z,1008.64
2018-03-14T06:59:14.906Z,1008.64
2018-03-14T07:00:06.793Z,1008.65
2018-03-14T07:01:06.832Z,1008.72
2018-03-14T07:09:42.178Z,1008.75
2018-03-14T07:16:29.748Z,1008.84
2018-03-14T07:17:29.640Z,1008.84
2018-03-14T07:18:29.557Z,1008.84
2018-03-14T07:19:29.476Z,1008.79
2018-03-14T07:20:29.415Z,1008.78
2018-03-14T07:21:29.323Z,1008.78
2018-03-14T07:22:29.245Z,1008.84
2018-03-14T07:23:29.202Z,1008.85
2018-03-14T07:24:29.072Z,1008.89
2018-03-14T07:25:29.004Z,1008.87
2018-03-14T07:26:29.010Z,1008.89
2018-03-14T07:27:28.826Z,1008.95
2018-03-14T07:28:28.785Z,1008.95
2018-03-14T07:29:28.801Z,1008.94
2018-03-14T07:30:28.592Z,1008.93
2018-03-14T07:31:28.511Z,1008.97
2018-03-14T07:32:28.434Z,1008.94
2018-03-14T07:33:28.347Z,1008.97
2018-03-14T07:34:28.263Z,1008.95
2018-03-14T07:35:28.175Z,1009.00
2018-03-14T07:36:28.224Z,1009.02
2018-03-14T07:37:28.021Z,1009.01
2018-03-14T07:38:27.953Z,1009.08
2018-03-14T07:39:27.861Z,1009.06
2018-03-14T07:40:27.782Z,1009.11
2018-03-14T07:41:27.711Z,1009.06
2018-03-14T07:42:27.633Z,1009.05
2018-03-14T07:43:27.544Z,1009.04
2018-03-14T07:44:27.502Z,1009.01
2018-03-14T07:45:27.389Z,1008.97
2018-03-14T07:46:27.336Z,1008.90
2018-03-14T07:47:27.215Z,1008.93
2018-03-14T07:48:27.160Z,1008.94
2018-03-14T07:49:27.122Z,1009.06
2018-03-14T07:50:26.994Z,1009.07
2018-03-14T07:51:26.927Z,1008.94
2018-03-14T07:52:26.853Z,1008.95
2018-03-14T07:53:26.763Z,1008.98
2018-03-14T07:54:26.718Z,1008.97
2018-03-14T07:55:26.610Z,1009.00
2018-03-14T07:56:26.560Z,1009.09
2018-03-14T07:57:26.465Z,1008.93
2018-03-14T07:58:26.377Z,1009.00
2018-03-14T07:59:26.287Z,1009.16
2018-03-14T08:00:26.234Z,1009.08
2018-03-14T08:01:26.125Z,1009.13
2018-03-14T08:02:26.309Z,1009.12
2018-03-14T08:03:25.971Z,1009.09
2018-03-14T08:04:25.904Z,1008.98
2018-03-14T08:05:25.817Z,1009.00
2018-03-14T08:06:25.872Z,1009.01
2018-03-14T08:07:25.675Z,1008.95
2018-03-14T08:08:25.717Z,1008.92
2018-03-14T08:09:25.552Z,1008.88
2018-03-14T08:10:25.431Z,1008.87
2018-03-14T08:11:25.352Z,1008.87
2018-03-14T08:12:25.306Z,1008.92
2018-03-14T08:13:25.285Z,1008.90
2018-03-14T08:14:25.170Z,1008.92
2018-03-14T08:15:25.032Z,1008.89
2018-03-14T08:16:25.012Z,1008.92
2018-03-14T08:17:24.910Z,1008.86
2018-03-14T08:18:24.844Z,1008.83
2018-03-14T08:19:24.743Z,1008.88
2018-03-14T08:20:24.730Z,1008.89
2018-03-14T08:21:24.567Z,1008.91
2018-03-14T08:22:24.709Z,1008.88
2018-03-14T08:23:24.422Z,1008.92
2018-03-14T08:24:24.450Z,1009.04
2018-03-14T08:25:24.268Z,1008.95
2018-03-14T08:26:24.259Z,1008.99
2018-03-14T08:27:24.079Z,1009.19
2018-03-14T08:28:24.050Z,1009.36
2018-03-14T08:29:23.915Z,1009.36
2018-03-14T08:30:23.873Z,1009.33
2018-03-14T08:31:23.765Z,1009.35
2018-03-14T08:32:23.695Z,1009.34
2018-03-14T08:33:23.627Z,1009.31
2018-03-14T08:34:23.597Z,1009.38
2018-03-14T08:35:23.445Z,1009.38
2018-03-14T08:36:23.396Z,1009.31
2018-03-14T08:37:23.296Z,1009.29
2018-03-14T08:38:23.257Z,1009.36
2018-03-14T08:39:23.168Z,1009.37
2018-03-14T08:40:23.118Z,1009.29
2018-03-14T08:41:22.971Z,1009.33
2018-03-14T08:42:22.926Z,1009.33
2018-03-14T08:43:22.863Z,1009.31
2018-03-14T08:44:22.830Z,1009.02
2018-03-14T08:45:22.661Z,1008.99
2018-03-14T08:46:22.654Z,1008.97
2018-03-14T08:47:22.512Z,1008.99
2018-03-14T08:48:22.551Z,1008.94
2018-03-14T08:49:22.373Z,1008.94
2018-03-14T08:50:22.419Z,1008.96
2018-03-14T08:51:22.199Z,1008.97
2018-03-14T08:52:22.180Z,1009.14
2018-03-14T08:53:22.036Z,1009.07
2018-03-14T08:54:22.037Z,1009.05
2018-03-14T08:55:21.899Z,1009.09
2018-03-14T08:56:21.970Z,1009.32
2018-03-14T08:57:21.736Z,1009.28
2018-03-14T09:00:03.830Z,1009.01
2018-03-14T09:01:03.839Z,1009.06
2018-03-14T09:02:03.672Z,1009.05
2018-03-14T09:03:03.606Z,1009.08
2018-03-14T09:04:03.535Z,1009.06
2018-03-14T09:05:03.429Z,1009.42
2018-03-14T09:06:03.338Z,1009.40
2018-03-14T09:07:03.338Z,1009.10
2018-03-14T09:08:03.185Z,1009.06
2018-03-14T09:09:03.189Z,1009.02
2018-03-14T09:10:03.025Z,1009.04
2018-03-14T09:11:03.099Z,1009.04
2018-03-14T09:12:02.860Z,1009.14
2018-03-14T09:13:02.858Z,1009.12
2018-03-14T09:14:02.719Z,1009.07
2018-03-14T09:15:02.654Z,1009.15
2018-03-14T09:16:02.547Z,1009.13
2018-03-14T09:17:02.577Z,1009.13
2018-03-14T09:18:02.475Z,1009.12
2018-03-14T09:19:02.433Z,1009.12
2018-03-14T09:20:02.241Z,1009.22
2018-03-14T09:21:02.198Z,1009.45
2018-03-14T09:22:02.081Z,1009.18
2018-03-14T09:23:02.129Z,1009.14
2018-03-14T09:24:01.915Z,1009.14
2018-03-14T09:25:01.959Z,1009.71
2018-03-14T09:26:01.771Z,1009.35
2018-03-14T09:27:01.770Z,1009.18
2018-03-14T09:28:01.611Z,1009.70
2018-03-14T09:29:01.633Z,1009.77
2018-03-14T09:30:01.452Z,1009.55
2018-03-14T09:31:01.563Z,1009.71
2018-03-14T09:32:01.308Z,1009.62
2018-03-14T09:33:01.257Z,1009.59
2018-03-14T09:34:01.141Z,1009.73
2018-03-14T09:35:01.176Z,1009.68
2018-03-14T09:36:01.009Z,1009.57
2018-03-14T09:37:00.925Z,1009.77
2018-03-14T09:38:00.834Z,1009.88
2018-03-14T09:39:00.779Z,1009.98
2018-03-14T09:40:00.676Z,1009.94
2018-03-14T09:41:00.738Z,1009.60
2018-03-14T09:42:00.555Z,1009.93
2018-03-14T09:43:00.482Z,1009.61
2018-03-14T09:44:00.342Z,1009.67
2018-03-14T09:45:00.293Z,1009.70
2018-03-14T09:46:00.228Z,1009.76
2018-03-14T09:47:00.270Z,1009.55
2018-03-14T09:48:00.063Z,1009.36
2018-03-14T09:49:00.026Z,1009.35
2018-03-14T09:49:59.950Z,1009.82
2018-03-14T09:50:59.936Z,1010.09
2018-03-14T09:51:59.734Z,1010.06
2018-03-14T09:52:59.793Z,1010.16
2018-03-14T09:53:59.608Z,1010.25
2018-03-14T09:54:59.558Z,1010.25
2018-03-14T09:55:59.430Z,1010.22
2018-03-14T09:56:59.378Z,1010.18
2018-03-14T09:57:59.321Z,1010.17
2018-03-14T09:58:59.269Z,1010.07
2018-03-14T09:59:59.144Z,1010.13
2018-03-14T10:00:59.078Z,1010.11
2018-03-14T10:01:58.975Z,1010.08
2018-03-14T10:02:59.030Z,1010.16
2018-03-14T10:03:58.839Z,1010.11
2018-03-14T10:04:58.779Z,1010.12
2018-03-14T10:05:58.708Z,1010.14
2018-03-14T10:06:58.636Z,1010.02
2018-03-14T10:07:58.570Z,1009.88
2018-03-14T10:08:58.487Z,1010.03
2018-03-14T10:09:58.394Z,1010.06
2018-03-14T10:10:58.432Z,1010.01
2018-03-14T10:11:58.258Z,1010.06
2018-03-14T10:12:58.381Z,1010.08
2018-03-14T10:13:58.101Z,1010.07
2018-03-14T10:14:58.145Z,1010.15
2018-03-14T10:15:58.079Z,1010.17
2018-03-14T10:16:57.894Z,1010.15
2018-03-14T10:17:57.847Z,1010.22
2018-03-14T10:18:57.783Z,1010.03
2018-03-14T10:19:57.675Z,1009.62
2018-03-14T10:20:57.611Z,1009.56
2018-03-14T10:21:57.516Z,1009.57
2018-03-14T10:22:57.496Z,1010.06
2018-03-14T10:23:57.423Z,1010.12
2018-03-14T10:24:57.394Z,1010.10
2018-03-14T10:25:57.322Z,1010.08
2018-03-14T10:26:57.209Z,1010.13
2018-03-14T10:27:57.106Z,1010.08
2018-03-14T10:28:57.101Z,1010.13
2018-03-14T10:29:56.940Z,1009.75
2018-03-14T10:30:56.926Z,1010.26
2018-03-14T10:31:56.890Z,1010.15
2018-03-14T10:32:56.735Z,1010.27
2018-03-14T10:33:56.673Z,1010.46
2018-03-14T10:34:56.720Z,1010.52
2018-03-14T10:35:56.504Z,1010.52
2018-03-14T10:36:56.547Z,1009.71
2018-03-14T10:37:56.361Z,1009.51
2018-03-14T10:38:56.392Z,1009.52
2018-03-14T10:39:56.228Z,1009.50
2018-03-14T10:40:56.304Z,1010.52
2018-03-14T10:41:56.183Z,1011.04
2018-03-14T10:42:56.082Z,1009.59
2018-03-14T10:43:55.935Z,1010.82
2018-03-14T10:44:55.903Z,1010.58
2018-03-14T10:45:55.792Z,1009.33
2018-03-14T10:46:55.723Z,1009.16
2018-03-14T10:47:55.635Z,1009.16
2018-03-14T10:48:55.608Z,1009.11
2018-03-14T10:49:55.512Z,1009.24
2018-03-14T10:50:55.428Z,1009.18
2018-03-14T10:51:55.340Z,1009.27
2018-03-14T10:52:55.293Z,1009.35
2018-03-14T10:53:55.209Z,1009.37
2018-03-14T10:54:55.159Z,1009.63
2018-03-14T10:55:55.060Z,1009.29
2018-03-14T10:56:54.989Z,1009.11
2018-03-14T10:57:54.955Z,1009.13
2018-03-14T10:58:54.852Z,1009.18
2018-03-14T10:59:54.783Z,1009.34
2018-03-14T11:00:55.419Z,1010.31
2018-03-14T11:01:54.591Z,1010.86
2018-03-14T11:02:54.557Z,1012.15
2018-03-14T11:03:54.446Z,1011.75
2018-03-14T11:04:54.389Z,1009.65
2018-03-14T11:05:54.322Z,1010.00
2018-03-14T11:06:54.237Z,1009.88
2018-03-14T11:07:54.137Z,1009.44
2018-03-14T11:08:54.077Z,1009.69
2018-03-14T11:09:54.005Z,1009.75
2018-03-14T11:10:53.949Z,1009.12
2018-03-14T11:11:53.872Z,1009.23
2018-03-14T11:12:53.783Z,1011.00
2018-03-14T11:13:53.739Z,1009.33
2018-03-14T11:14:53.635Z,1009.34
2018-03-14T11:15:53.557Z,1009.05
2018-03-14T11:16:53.520Z,1009.76
2018-03-14T11:17:53.391Z,1008.98
2018-03-14T11:18:53.320Z,1009.01
2018-03-14T11:19:53.237Z,1009.19
2018-03-14T11:20:53.179Z,1010.90
2018-03-14T11:21:53.523Z,1012.12
2018-03-14T11:22:53.003Z,1010.61
2018-03-14T11:23:52.956Z,1014.13
2018-03-14T11:24:52.856Z,1016.56
2018-03-14T11:25:52.769Z,1013.42
2018-03-14T11:26:52.716Z,1012.60
2018-03-14T11:27:52.613Z,1014.03
2018-03-14T11:28:52.568Z,1015.74
2018-03-14T11:29:52.532Z,1014.67
2018-03-14T11:30:52.397Z,1012.91
2018-03-14T11:31:52.344Z,1013.71
2018-03-14T11:32:52.247Z,1016.42
2018-03-14T11:33:52.179Z,1014.29
2018-03-14T11:34:52.086Z,1013.50
2018-03-14T11:35:52.018Z,1012.84
2018-03-14T11:36:52.029Z,1014.06
2018-03-14T11:37:51.871Z,1010.26
2018-03-14T11:38:51.802Z,1008.79
2018-03-14T11:39:51.773Z,1008.77
2018-03-14T11:40:51.648Z,1008.80
2018-03-14T11:41:51.592Z,1009.89
2018-03-14T11:42:51.540Z,1009.08
2018-03-14T11:43:51.422Z,1010.77
2018-03-14T11:44:51.369Z,1013.04
2018-03-14T11:45:51.279Z,1014.02
2018-03-14T11:46:51.222Z,1016.49
2018-03-14T11:47:51.124Z,1017.04
2018-03-14T11:48:51.068Z,1015.10
2018-03-14T11:49:50.977Z,1014.32
2018-03-14T11:50:50.921Z,1016.40
2018-03-14T11:51:50.844Z,1018.34
2018-03-14T11:52:50.765Z,1017.53
2018-03-14T11:53:50.682Z,1015.05
2018-03-14T11:54:50.615Z,1015.37
2018-03-14T11:55:50.537Z,1018.20
2018-03-14T11:56:51.499Z,1019.52
2018-03-14T11:57:50.387Z,1017.36
2018-03-14T11:58:50.346Z,1015.15
2018-03-14T11:59:50.235Z,1016.85
2018-03-14T12:00:50.182Z,1020.13
2018-03-14T12:01:50.141Z,1020.47
2018-03-14T12:02:50.075Z,1017.37
2018-03-14T12:03:49.951Z,1015.64
2018-03-14T12:04:49.891Z,1016.96
2018-03-14T12:05:49.825Z,1019.37
2018-03-14T12:06:49.740Z,1019.35
2018-03-14T12:07:49.678Z,1017.10
2018-03-14T12:08:49.605Z,1012.71
2018-03-14T12:09:49.523Z,1008.11
2018-03-14T12:10:49.462Z,1008.03
2018-03-14T12:11:49.375Z,1007.92
2018-03-14T12:12:49.429Z,1007.90
2018-03-14T12:13:49.231Z,1007.91
2018-03-14T12:14:49.226Z,1007.89
2018-03-14T12:15:49.082Z,1007.98
2018-03-14T12:16:49.042Z,1007.91
2018-03-14T12:17:48.968Z,1007.87
2018-03-14T12:18:48.971Z,1007.71
2018-03-14T12:19:48.798Z,1007.67
2018-03-14T12:20:48.834Z,1007.64
2018-03-14T12:21:48.659Z,1007.59
2018-03-14T12:22:48.584Z,1007.53
2018-03-14T12:23:48.514Z,1007.54
2018-03-14T12:24:48.505Z,1007.53
2018-03-14T12:25:48.349Z,1007.48
2018-03-14T12:26:48.367Z,1007.45